sensor_id;sensor_type;location;lat;lon;timestamp;temperature;humidity
7472;DHT22;3777;48.722;8.110;2023-04-24T00:01:06;12.70;99.90
7472;DHT22;3777;48.722;8.110;2023-04-24T00:03:34;12.80;99.90
7472;DHT22;3777;48.722;8.110;2023-04-24T00:06:01;12.80;99.90
7472;DHT22;3777;48.722;8.110;2023-04-24T00:08:28;12.90;99.90
7472;DHT22;3777;48.722;8.110;2023-04-24T00:10:55;12.80;99.90
7472;DHT22;3777;48.722;8.110;2023-04-24T00:13:22;12.90;99.90
7472;DHT22;3777;48.722;8.110;2023-04-24T00:15:49;12.90;99.90
7472;DHT22;3777;48.722;8.110;2023-04-24T00:18:17;12.90;99.90
7472;DHT22;3777;48.722;8.110;2023-04-24T00:20:44;12.90;99.90
7472;DHT22;3777;48.722;8.110;2023-04-24T00:23:12;12.90;99.90
7472;DHT22;3777;48.722;8.110;2023-04-24T00:25:39;12.90;99.90
7472;DHT22;3777;48.722;8.110;2023-04-24T00:28:06;12.80;99.90
7472;DHT22;3777;48.722;8.110;2023-04-24T00:30:33;12.80;99.90
7472;DHT22;3777;48.722;8.110;2023-04-24T00:33:00;12.80;99.90
7472;DHT22;3777;48.722;8.110;2023-04-24T00:35:28;12.70;99.90
7472;DHT22;3777;48.722;8.110;2023-04-24T00:37:55;12.70;99.90
7472;DHT22;3777;48.722;8.110;2023-04-24T00:40:22;12.70;99.90
7472;DHT22;3777;48.722;8.110;2023-04-24T00:42:49;12.70;99.90
7472;DHT22;3777;48.722;8.110;2023-04-24T00:45:16;12.70;99.90
7472;DHT22;3777;48.722;8.110;2023-04-24T00:47:43;12.70;99.90
7472;DHT22;3777;48.722;8.110;2023-04-24T00:50:12;12.80;99.90
7472;DHT22;3777;48.722;8.110;2023-04-24T00:52:43;12.70;99.90
7472;DHT22;3777;48.722;8.110;2023-04-24T00:55:10;12.70;99.90
7472;DHT22;3777;48.722;8.110;2023-04-24T00:57:37;12.70;99.90
7472;DHT22;3777;48.722;8.110;2023-04-24T01:00:06;12.70;99.90
7472;DHT22;3777;48.722;8.110;2023-04-24T01:02:37;12.70;99.90
7472;DHT22;3777;48.722;8.110;2023-04-24T01:05:06;12.70;99.90
7472;DHT22;3777;48.722;8.110;2023-04-24T01:07:34;12.70;99.90
7472;DHT22;3777;48.722;8.110;2023-04-24T01:10:03;12.80;99.90
7472;DHT22;3777;48.722;8.110;2023-04-24T01:12:30;12.90;99.90
7472;DHT22;3777;48.722;8.110;2023-04-24T01:14:58;12.90;99.90
7472;DHT22;3777;48.722;8.110;2023-04-24T01:17:25;13.00;99.90
7472;DHT22;3777;48.722;8.110;2023-04-24T01:19:52;13.10;99.90
7472;DHT22;3777;48.722;8.110;2023-04-24T01:22:20;13.10;99.90
7472;DHT22;3777;48.722;8.110;2023-04-24T01:24:48;13.20;99.90
7472;DHT22;3777;48.722;8.110;2023-04-24T01:27:15;13.30;99.90
7472;DHT22;3777;48.722;8.110;2023-04-24T01:29:42;13.20;99.90
7472;DHT22;3777;48.722;8.110;2023-04-24T01:32:09;13.20;99.90
7472;DHT22;3777;48.722;8.110;2023-04-24T01:34:37;13.20;99.90
7472;DHT22;3777;48.722;8.110;2023-04-24T01:37:04;13.20;99.90
7472;DHT22;3777;48.722;8.110;2023-04-24T01:39:36;13.10;99.90
7472;DHT22;3777;48.722;8.110;2023-04-24T01:42:03;13.10;99.90
7472;DHT22;3777;48.722;8.110;2023-04-24T01:44:31;13.00;99.90
7472;DHT22;3777;48.722;8.110;2023-04-24T01:46:58;13.00;99.90
7472;DHT22;3777;48.722;8.110;2023-04-24T01:49:25;12.90;99.90
7472;DHT22;3777;48.722;8.110;2023-04-24T01:51:52;12.80;99.90
7472;DHT22;3777;48.722;8.110;2023-04-24T01:54:19;12.80;99.90
7472;DHT22;3777;48.722;8.110;2023-04-24T01:56:47;12.70;99.90
7472;DHT22;3777;48.722;8.110;2023-04-24T01:59:17;12.60;99.90
7472;DHT22;3777;48.722;8.110;2023-04-24T02:01:44;12.60;99.90
7472;DHT22;3777;48.722;8.110;2023-04-24T02:04:11;12.60;99.90
7472;DHT22;3777;48.722;8.110;2023-04-24T02:06:39;12.50;99.90
7472;DHT22;3777;48.722;8.110;2023-04-24T02:09:06;12.50;99.90
7472;DHT22;3777;48.722;8.110;2023-04-24T02:11:33;12.40;99.90
7472;DHT22;3777;48.722;8.110;2023-04-24T02:14:02;12.40;99.90
7472;DHT22;3777;48.722;8.110;2023-04-24T02:16:29;12.50;99.90
7472;DHT22;3777;48.722;8.110;2023-04-24T02:18:58;12.50;99.90
7472;DHT22;3777;48.722;8.110;2023-04-24T02:21:25;12.50;99.90
7472;DHT22;3777;48.722;8.110;2023-04-24T02:23:53;12.50;99.90
7472;DHT22;3777;48.722;8.110;2023-04-24T02:26:20;12.50;99.90
7472;DHT22;3777;48.722;8.110;2023-04-24T02:28:46;12.50;99.90
7472;DHT22;3777;48.722;8.110;2023-04-24T02:31:15;12.50;99.90
7472;DHT22;3777;48.722;8.110;2023-04-24T02:33:42;12.60;99.90
7472;DHT22;3777;48.722;8.110;2023-04-24T02:36:09;12.50;99.90
7472;DHT22;3777;48.722;8.110;2023-04-24T02:38:36;12.50;99.90
7472;DHT22;3777;48.722;8.110;2023-04-24T02:41:03;12.50;99.90
7472;DHT22;3777;48.722;8.110;2023-04-24T02:43:31;12.60;99.90
7472;DHT22;3777;48.722;8.110;2023-04-24T02:45:59;12.60;99.90
7472;DHT22;3777;48.722;8.110;2023-04-24T02:48:27;12.70;99.90
7472;DHT22;3777;48.722;8.110;2023-04-24T02:50:54;12.80;99.90
7472;DHT22;3777;48.722;8.110;2023-04-24T02:53:21;12.90;99.90
7472;DHT22;3777;48.722;8.110;2023-04-24T02:55:48;12.90;99.90
7472;DHT22;3777;48.722;8.110;2023-04-24T02:58:15;12.90;99.90
7472;DHT22;3777;48.722;8.110;2023-04-24T03:00:43;13.00;99.90
7472;DHT22;3777;48.722;8.110;2023-04-24T03:03:10;12.90;99.90
7472;DHT22;3777;48.722;8.110;2023-04-24T03:05:38;12.70;99.90
7472;DHT22;3777;48.722;8.110;2023-04-24T03:08:05;12.60;99.90
7472;DHT22;3777;48.722;8.110;2023-04-24T03:10:32;12.30;99.90
7472;DHT22;3777;48.722;8.110;2023-04-24T03:12:59;12.00;99.90
7472;DHT22;3777;48.722;8.110;2023-04-24T03:15:26;11.90;99.90
7472;DHT22;3777;48.722;8.110;2023-04-24T03:17:53;11.90;99.90
7472;DHT22;3777;48.722;8.110;2023-04-24T03:20:21;11.80;99.90
7472;DHT22;3777;48.722;8.110;2023-04-24T03:22:49;11.80;99.90
7472;DHT22;3777;48.722;8.110;2023-04-24T03:25:16;11.70;99.90
7472;DHT22;3777;48.722;8.110;2023-04-24T03:27:43;11.60;99.90
7472;DHT22;3777;48.722;8.110;2023-04-24T03:30:10;11.60;99.90
7472;DHT22;3777;48.722;8.110;2023-04-24T03:32:37;11.50;99.90
7472;DHT22;3777;48.722;8.110;2023-04-24T03:35:05;11.60;99.90
7472;DHT22;3777;48.722;8.110;2023-04-24T03:37:33;11.50;99.90
7472;DHT22;3777;48.722;8.110;2023-04-24T03:40:01;11.60;99.90
7472;DHT22;3777;48.722;8.110;2023-04-24T03:42:28;11.60;99.90
7472;DHT22;3777;48.722;8.110;2023-04-24T03:44:55;11.60;99.90
7472;DHT22;3777;48.722;8.110;2023-04-24T03:47:22;11.60;99.90
7472;DHT22;3777;48.722;8.110;2023-04-24T03:49:49;11.60;99.90
7472;DHT22;3777;48.722;8.110;2023-04-24T03:52:16;11.70;99.90
7472;DHT22;3777;48.722;8.110;2023-04-24T03:54:43;11.70;99.90
7472;DHT22;3777;48.722;8.110;2023-04-24T03:57:11;11.70;99.90
7472;DHT22;3777;48.722;8.110;2023-04-24T03:59:38;11.70;99.90
7472;DHT22;3777;48.722;8.110;2023-04-24T04:02:05;11.70;99.90
7472;DHT22;3777;48.722;8.110;2023-04-24T04:04:33;11.70;99.90
7472;DHT22;3777;48.722;8.110;2023-04-24T04:07:00;11.70;99.90
7472;DHT22;3777;48.722;8.110;2023-04-24T04:09:28;11.60;99.90
7472;DHT22;3777;48.722;8.110;2023-04-24T04:11:55;11.50;99.90
7472;DHT22;3777;48.722;8.110;2023-04-24T04:14:23;11.50;99.90
7472;DHT22;3777;48.722;8.110;2023-04-24T04:16:51;11.20;99.90
7472;DHT22;3777;48.722;8.110;2023-04-24T04:19:18;11.20;99.90
7472;DHT22;3777;48.722;8.110;2023-04-24T04:21:45;11.10;99.90
7472;DHT22;3777;48.722;8.110;2023-04-24T04:24:16;11.10;99.90
7472;DHT22;3777;48.722;8.110;2023-04-24T04:26:43;11.10;99.90
7472;DHT22;3777;48.722;8.110;2023-04-24T04:29:11;11.10;99.90
7472;DHT22;3777;48.722;8.110;2023-04-24T04:31:40;11.10;99.90
7472;DHT22;3777;48.722;8.110;2023-04-24T04:34:07;11.10;99.90
7472;DHT22;3777;48.722;8.110;2023-04-24T04:36:34;11.00;99.90
7472;DHT22;3777;48.722;8.110;2023-04-24T04:39:02;11.00;99.90
7472;DHT22;3777;48.722;8.110;2023-04-24T04:41:29;11.00;99.90
7472;DHT22;3777;48.722;8.110;2023-04-24T04:43:56;10.90;99.90
7472;DHT22;3777;48.722;8.110;2023-04-24T04:46:24;10.90;99.90
7472;DHT22;3777;48.722;8.110;2023-04-24T04:48:53;10.90;99.90
7472;DHT22;3777;48.722;8.110;2023-04-24T04:51:22;11.00;99.90
7472;DHT22;3777;48.722;8.110;2023-04-24T04:53:49;11.00;99.90
7472;DHT22;3777;48.722;8.110;2023-04-24T04:56:16;11.10;99.90
7472;DHT22;3777;48.722;8.110;2023-04-24T04:58:42;11.20;99.90
7472;DHT22;3777;48.722;8.110;2023-04-24T05:01:10;11.40;99.90
7472;DHT22;3777;48.722;8.110;2023-04-24T05:03:36;11.50;99.90
7472;DHT22;3777;48.722;8.110;2023-04-24T05:06:06;11.60;99.90
7472;DHT22;3777;48.722;8.110;2023-04-24T05:08:33;11.70;99.90
7472;DHT22;3777;48.722;8.110;2023-04-24T05:10:59;11.80;99.90
7472;DHT22;3777;48.722;8.110;2023-04-24T05:13:26;11.80;99.90
7472;DHT22;3777;48.722;8.110;2023-04-24T05:15:53;11.80;99.90
7472;DHT22;3777;48.722;8.110;2023-04-24T05:18:20;11.80;99.90
7472;DHT22;3777;48.722;8.110;2023-04-24T05:20:47;11.60;99.90
7472;DHT22;3777;48.722;8.110;2023-04-24T05:23:16;11.60;99.90
7472;DHT22;3777;48.722;8.110;2023-04-24T05:25:43;11.60;99.90
7472;DHT22;3777;48.722;8.110;2023-04-24T05:28:09;11.60;99.90
7472;DHT22;3777;48.722;8.110;2023-04-24T05:30:36;11.70;99.90
7472;DHT22;3777;48.722;8.110;2023-04-24T05:33:03;11.80;99.90
7472;DHT22;3777;48.722;8.110;2023-04-24T05:35:31;11.80;99.90
7472;DHT22;3777;48.722;8.110;2023-04-24T05:37:58;11.90;99.90
7472;DHT22;3777;48.722;8.110;2023-04-24T05:40:26;11.90;99.90
7472;DHT22;3777;48.722;8.110;2023-04-24T05:42:53;12.00;99.90
7472;DHT22;3777;48.722;8.110;2023-04-24T05:45:20;12.00;99.90
7472;DHT22;3777;48.722;8.110;2023-04-24T05:47:47;12.10;99.90
7472;DHT22;3777;48.722;8.110;2023-04-24T05:50:14;12.10;99.90
7472;DHT22;3777;48.722;8.110;2023-04-24T05:52:41;12.20;99.90
7472;DHT22;3777;48.722;8.110;2023-04-24T05:55:08;12.20;99.90
7472;DHT22;3777;48.722;8.110;2023-04-24T05:57:37;12.20;99.90
7472;DHT22;3777;48.722;8.110;2023-04-24T06:00:05;12.30;99.90
7472;DHT22;3777;48.722;8.110;2023-04-24T06:02:33;12.30;99.90
7472;DHT22;3777;48.722;8.110;2023-04-24T06:05:00;12.30;99.90
7472;DHT22;3777;48.722;8.110;2023-04-24T06:07:27;12.30;99.90
7472;DHT22;3777;48.722;8.110;2023-04-24T06:09:54;12.30;99.90
7472;DHT22;3777;48.722;8.110;2023-04-24T06:12:21;12.40;99.90
7472;DHT22;3777;48.722;8.110;2023-04-24T06:14:49;12.40;99.90
7472;DHT22;3777;48.722;8.110;2023-04-24T06:17:16;12.40;99.90
7472;DHT22;3777;48.722;8.110;2023-04-24T06:19:43;12.50;99.90
7472;DHT22;3777;48.722;8.110;2023-04-24T06:22:10;12.50;99.90
7472;DHT22;3777;48.722;8.110;2023-04-24T06:24:37;12.60;99.90
7472;DHT22;3777;48.722;8.110;2023-04-24T06:27:04;12.70;99.90
7472;DHT22;3777;48.722;8.110;2023-04-24T06:29:31;12.50;99.90
7472;DHT22;3777;48.722;8.110;2023-04-24T06:32:00;12.60;99.90
7472;DHT22;3777;48.722;8.110;2023-04-24T06:34:27;12.70;99.90
7472;DHT22;3777;48.722;8.110;2023-04-24T06:36:55;12.70;99.90
7472;DHT22;3777;48.722;8.110;2023-04-24T06:39:22;12.90;99.90
7472;DHT22;3777;48.722;8.110;2023-04-24T06:41:49;13.10;99.90
7472;DHT22;3777;48.722;8.110;2023-04-24T06:44:16;13.10;99.90
7472;DHT22;3777;48.722;8.110;2023-04-24T06:46:43;13.20;99.90
7472;DHT22;3777;48.722;8.110;2023-04-24T06:49:11;13.10;99.90
7472;DHT22;3777;48.722;8.110;2023-04-24T06:51:41;13.40;99.90
7472;DHT22;3777;48.722;8.110;2023-04-24T06:54:08;13.70;99.90
7472;DHT22;3777;48.722;8.110;2023-04-24T06:56:35;13.70;99.90
7472;DHT22;3777;48.722;8.110;2023-04-24T06:59:02;13.80;99.90
7472;DHT22;3777;48.722;8.110;2023-04-24T07:01:29;13.90;99.90
7472;DHT22;3777;48.722;8.110;2023-04-24T07:03:56;13.90;99.90
7472;DHT22;3777;48.722;8.110;2023-04-24T07:06:24;13.90;99.90
7472;DHT22;3777;48.722;8.110;2023-04-24T07:08:52;14.00;99.90
7472;DHT22;3777;48.722;8.110;2023-04-24T07:11:21;14.10;99.90
7472;DHT22;3777;48.722;8.110;2023-04-24T07:13:48;14.10;99.90
7472;DHT22;3777;48.722;8.110;2023-04-24T07:16:15;14.10;99.90
7472;DHT22;3777;48.722;8.110;2023-04-24T07:18:42;14.00;99.90
7472;DHT22;3777;48.722;8.110;2023-04-24T07:21:10;13.90;99.90
7472;DHT22;3777;48.722;8.110;2023-04-24T07:23:38;13.90;99.90
7472;DHT22;3777;48.722;8.110;2023-04-24T07:26:06;13.90;99.90
7472;DHT22;3777;48.722;8.110;2023-04-24T07:28:33;14.00;99.90
7472;DHT22;3777;48.722;8.110;2023-04-24T07:31:00;14.00;99.90
7472;DHT22;3777;48.722;8.110;2023-04-24T07:33:27;14.10;99.90
7472;DHT22;3777;48.722;8.110;2023-04-24T07:35:54;14.40;99.90
7472;DHT22;3777;48.722;8.110;2023-04-24T07:38:22;14.70;99.90
7472;DHT22;3777;48.722;8.110;2023-04-24T07:40:52;14.60;99.90
7472;DHT22;3777;48.722;8.110;2023-04-24T07:43:20;14.40;99.90
7472;DHT22;3777;48.722;8.110;2023-04-24T07:45:47;14.40;99.90
7472;DHT22;3777;48.722;8.110;2023-04-24T07:48:14;14.40;99.90
7472;DHT22;3777;48.722;8.110;2023-04-24T07:50:41;14.30;99.90
7472;DHT22;3777;48.722;8.110;2023-04-24T07:53:08;14.00;99.90
7472;DHT22;3777;48.722;8.110;2023-04-24T07:55:36;13.80;99.90
7472;DHT22;3777;48.722;8.110;2023-04-24T07:58:04;13.60;99.90
7472;DHT22;3777;48.722;8.110;2023-04-24T08:00:31;13.40;99.90
7472;DHT22;3777;48.722;8.110;2023-04-24T08:02:58;13.30;99.90
7472;DHT22;3777;48.722;8.110;2023-04-24T08:05:25;13.20;99.90
7472;DHT22;3777;48.722;8.110;2023-04-24T08:07:54;13.40;99.90
7472;DHT22;3777;48.722;8.110;2023-04-24T08:10:21;13.60;99.90
7472;DHT22;3777;48.722;8.110;2023-04-24T08:12:48;13.80;99.90
7472;DHT22;3777;48.722;8.110;2023-04-24T08:15:16;13.90;99.90
7472;DHT22;3777;48.722;8.110;2023-04-24T08:17:44;13.90;99.90
7472;DHT22;3777;48.722;8.110;2023-04-24T08:20:11;13.90;99.90
7472;DHT22;3777;48.722;8.110;2023-04-24T08:22:40;13.80;99.90
7472;DHT22;3777;48.722;8.110;2023-04-24T08:25:08;13.90;99.90
7472;DHT22;3777;48.722;8.110;2023-04-24T08:27:35;13.70;99.90
7472;DHT22;3777;48.722;8.110;2023-04-24T08:30:05;13.60;99.90
7472;DHT22;3777;48.722;8.110;2023-04-24T08:32:33;13.50;99.90
7472;DHT22;3777;48.722;8.110;2023-04-24T08:35:00;13.50;99.90
7472;DHT22;3777;48.722;8.110;2023-04-24T08:37:27;13.60;99.90
7472;DHT22;3777;48.722;8.110;2023-04-24T08:39:54;13.80;99.90
7472;DHT22;3777;48.722;8.110;2023-04-24T08:42:21;13.90;99.90
7472;DHT22;3777;48.722;8.110;2023-04-24T08:44:49;14.00;99.90
7472;DHT22;3777;48.722;8.110;2023-04-24T08:47:17;14.00;99.90
7472;DHT22;3777;48.722;8.110;2023-04-24T08:49:48;14.30;99.90
7472;DHT22;3777;48.722;8.110;2023-04-24T08:52:16;14.60;99.90
7472;DHT22;3777;48.722;8.110;2023-04-24T08:54:43;14.90;99.90
7472;DHT22;3777;48.722;8.110;2023-04-24T08:57:13;15.10;99.90
7472;DHT22;3777;48.722;8.110;2023-04-24T08:59:42;15.20;99.90
7472;DHT22;3777;48.722;8.110;2023-04-24T09:02:10;15.30;99.90
7472;DHT22;3777;48.722;8.110;2023-04-24T09:04:38;15.40;99.90
7472;DHT22;3777;48.722;8.110;2023-04-24T09:07:06;15.50;99.90
7472;DHT22;3777;48.722;8.110;2023-04-24T09:09:34;15.50;99.90
7472;DHT22;3777;48.722;8.110;2023-04-24T09:12:02;15.40;99.90
7472;DHT22;3777;48.722;8.110;2023-04-24T09:14:30;15.30;99.90
7472;DHT22;3777;48.722;8.110;2023-04-24T09:16:57;15.30;99.90
7472;DHT22;3777;48.722;8.110;2023-04-24T09:19:24;15.20;99.90
7472;DHT22;3777;48.722;8.110;2023-04-24T09:21:52;15.00;99.90
7472;DHT22;3777;48.722;8.110;2023-04-24T09:24:21;14.90;99.90
7472;DHT22;3777;48.722;8.110;2023-04-24T09:26:55;14.70;99.90
7472;DHT22;3777;48.722;8.110;2023-04-24T09:29:23;14.60;99.90
7472;DHT22;3777;48.722;8.110;2023-04-24T09:31:51;14.60;99.90
7472;DHT22;3777;48.722;8.110;2023-04-24T09:34:22;14.60;99.90
7472;DHT22;3777;48.722;8.110;2023-04-24T09:36:50;14.60;99.90
7472;DHT22;3777;48.722;8.110;2023-04-24T09:39:17;14.60;99.90
7472;DHT22;3777;48.722;8.110;2023-04-24T09:41:50;14.40;99.90
7472;DHT22;3777;48.722;8.110;2023-04-24T09:44:18;14.20;99.90
7472;DHT22;3777;48.722;8.110;2023-04-24T09:46:49;14.00;99.90
7472;DHT22;3777;48.722;8.110;2023-04-24T09:49:22;13.90;99.90
7472;DHT22;3777;48.722;8.110;2023-04-24T09:51:49;13.80;99.90
7472;DHT22;3777;48.722;8.110;2023-04-24T09:54:17;13.80;99.90
7472;DHT22;3777;48.722;8.110;2023-04-24T09:56:47;13.90;99.90
7472;DHT22;3777;48.722;8.110;2023-04-24T09:59:15;14.00;99.90
7472;DHT22;3777;48.722;8.110;2023-04-24T10:01:43;14.20;99.90
7472;DHT22;3777;48.722;8.110;2023-04-24T10:04:17;14.30;99.90
7472;DHT22;3777;48.722;8.110;2023-04-24T10:06:45;14.30;99.90
7472;DHT22;3777;48.722;8.110;2023-04-24T10:09:12;14.40;99.90
7472;DHT22;3777;48.722;8.110;2023-04-24T10:11:42;14.40;99.90
7472;DHT22;3777;48.722;8.110;2023-04-24T10:14:13;14.40;99.90
7472;DHT22;3777;48.722;8.110;2023-04-24T10:16:43;14.20;99.90
7472;DHT22;3777;48.722;8.110;2023-04-24T10:19:12;14.20;99.90
7472;DHT22;3777;48.722;8.110;2023-04-24T10:21:40;14.20;99.90
7472;DHT22;3777;48.722;8.110;2023-04-24T10:24:12;14.00;99.90
7472;DHT22;3777;48.722;8.110;2023-04-24T10:26:40;14.10;99.90
7472;DHT22;3777;48.722;8.110;2023-04-24T10:29:08;14.50;99.90
7472;DHT22;3777;48.722;8.110;2023-04-24T10:31:39;14.90;99.90
7472;DHT22;3777;48.722;8.110;2023-04-24T10:34:08;15.40;99.90
7472;DHT22;3777;48.722;8.110;2023-04-24T10:36:38;15.80;99.90
7472;DHT22;3777;48.722;8.110;2023-04-24T10:39:09;16.00;99.90
7472;DHT22;3777;48.722;8.110;2023-04-24T10:41:38;16.00;99.90
7472;DHT22;3777;48.722;8.110;2023-04-24T10:44:06;16.00;99.90
7472;DHT22;3777;48.722;8.110;2023-04-24T10:46:33;16.00;99.90
7472;DHT22;3777;48.722;8.110;2023-04-24T10:49:03;15.80;99.90
7472;DHT22;3777;48.722;8.110;2023-04-24T10:51:47;15.70;99.90
7472;DHT22;3777;48.722;8.110;2023-04-24T10:54:25;15.50;99.90
7472;DHT22;3777;48.722;8.110;2023-04-24T10:56:53;15.40;99.90
7472;DHT22;3777;48.722;8.110;2023-04-24T10:59:34;15.20;99.90
7472;DHT22;3777;48.722;8.110;2023-04-24T11:02:03;15.00;99.90
7472;DHT22;3777;48.722;8.110;2023-04-24T11:04:35;14.90;99.90
7472;DHT22;3777;48.722;8.110;2023-04-24T11:07:03;14.90;99.90
7472;DHT22;3777;48.722;8.110;2023-04-24T11:09:31;15.00;99.90
7472;DHT22;3777;48.722;8.110;2023-04-24T11:12:05;15.00;99.90
7472;DHT22;3777;48.722;8.110;2023-04-24T11:15:00;15.10;99.90
7472;DHT22;3777;48.722;8.110;2023-04-24T11:17:29;15.00;99.90
7472;DHT22;3777;48.722;8.110;2023-04-24T11:20:02;14.80;99.90
7472;DHT22;3777;48.722;8.110;2023-04-24T11:22:34;14.70;99.90
7472;DHT22;3777;48.722;8.110;2023-04-24T11:25:02;14.50;99.90
7472;DHT22;3777;48.722;8.110;2023-04-24T11:27:30;14.40;99.90
7472;DHT22;3777;48.722;8.110;2023-04-24T11:30:00;14.30;99.90
7472;DHT22;3777;48.722;8.110;2023-04-24T11:32:29;14.20;99.90
7472;DHT22;3777;48.722;8.110;2023-04-24T11:34:58;14.20;99.90
7472;DHT22;3777;48.722;8.110;2023-04-24T11:37:35;14.20;99.90
7472;DHT22;3777;48.722;8.110;2023-04-24T11:40:03;14.20;99.90
7472;DHT22;3777;48.722;8.110;2023-04-24T11:42:34;14.30;99.90
7472;DHT22;3777;48.722;8.110;2023-04-24T11:45:01;14.40;99.90
7472;DHT22;3777;48.722;8.110;2023-04-24T11:47:29;14.60;99.90
7472;DHT22;3777;48.722;8.110;2023-04-24T11:49:59;14.70;99.90
7472;DHT22;3777;48.722;8.110;2023-04-24T11:52:26;14.80;99.90
7472;DHT22;3777;48.722;8.110;2023-04-24T11:54:54;14.90;99.90
7472;DHT22;3777;48.722;8.110;2023-04-24T11:57:22;14.90;99.90
7472;DHT22;3777;48.722;8.110;2023-04-24T11:59:52;14.90;99.90
7472;DHT22;3777;48.722;8.110;2023-04-24T12:02:22;14.90;99.90
7472;DHT22;3777;48.722;8.110;2023-04-24T12:04:49;14.80;99.90
7472;DHT22;3777;48.722;8.110;2023-04-24T12:07:17;14.70;99.90
7472;DHT22;3777;48.722;8.110;2023-04-24T12:09:45;14.70;99.90
7472;DHT22;3777;48.722;8.110;2023-04-24T12:12:15;14.60;99.90
7472;DHT22;3777;48.722;8.110;2023-04-24T12:14:43;14.50;99.90
7472;DHT22;3777;48.722;8.110;2023-04-24T12:17:11;14.40;99.90
7472;DHT22;3777;48.722;8.110;2023-04-24T12:19:37;14.20;99.90
7472;DHT22;3777;48.722;8.110;2023-04-24T12:22:05;14.10;99.90
7472;DHT22;3777;48.722;8.110;2023-04-24T12:24:32;14.00;99.90
7472;DHT22;3777;48.722;8.110;2023-04-24T12:26:59;14.10;99.90
7472;DHT22;3777;48.722;8.110;2023-04-24T12:29:29;14.10;99.90
7472;DHT22;3777;48.722;8.110;2023-04-24T12:31:56;14.50;99.90
7472;DHT22;3777;48.722;8.110;2023-04-24T12:34:24;14.80;99.90
7472;DHT22;3777;48.722;8.110;2023-04-24T12:36:52;14.90;99.90
7472;DHT22;3777;48.722;8.110;2023-04-24T12:39:19;15.10;99.90
7472;DHT22;3777;48.722;8.110;2023-04-24T12:41:55;15.20;99.90
7472;DHT22;3777;48.722;8.110;2023-04-24T12:44:31;15.10;99.90
7472;DHT22;3777;48.722;8.110;2023-04-24T12:47:00;15.10;99.90
7472;DHT22;3777;48.722;8.110;2023-04-24T12:49:26;15.20;99.90
7472;DHT22;3777;48.722;8.110;2023-04-24T12:51:54;15.40;99.90
7472;DHT22;3777;48.722;8.110;2023-04-24T12:54:21;15.60;99.90
7472;DHT22;3777;48.722;8.110;2023-04-24T12:56:48;15.80;99.90
7472;DHT22;3777;48.722;8.110;2023-04-24T12:59:15;16.10;99.90
7472;DHT22;3777;48.722;8.110;2023-04-24T13:01:43;16.40;99.90
7472;DHT22;3777;48.722;8.110;2023-04-24T13:04:10;16.70;99.90
7472;DHT22;3777;48.722;8.110;2023-04-24T13:06:37;16.70;99.90
7472;DHT22;3777;48.722;8.110;2023-04-24T13:09:04;17.00;99.90
7472;DHT22;3777;48.722;8.110;2023-04-24T13:11:31;17.10;99.90
7472;DHT22;3777;48.722;8.110;2023-04-24T13:13:58;17.00;99.90
7472;DHT22;3777;48.722;8.110;2023-04-24T13:16:25;17.00;99.90
7472;DHT22;3777;48.722;8.110;2023-04-24T13:18:53;17.10;99.90
7472;DHT22;3777;48.722;8.110;2023-04-24T13:21:20;17.00;99.90
7472;DHT22;3777;48.722;8.110;2023-04-24T13:23:47;17.20;99.90
7472;DHT22;3777;48.722;8.110;2023-04-24T13:26:14;17.40;99.90
7472;DHT22;3777;48.722;8.110;2023-04-24T13:28:41;17.40;99.90
7472;DHT22;3777;48.722;8.110;2023-04-24T13:31:08;17.60;99.90
7472;DHT22;3777;48.722;8.110;2023-04-24T13:33:35;17.70;99.90
7472;DHT22;3777;48.722;8.110;2023-04-24T13:36:04;17.90;99.90
7472;DHT22;3777;48.722;8.110;2023-04-24T13:38:31;18.00;99.90
7472;DHT22;3777;48.722;8.110;2023-04-24T13:40:58;17.90;99.90
7472;DHT22;3777;48.722;8.110;2023-04-24T13:43:25;18.00;99.90
7472;DHT22;3777;48.722;8.110;2023-04-24T13:45:52;18.10;99.90
7472;DHT22;3777;48.722;8.110;2023-04-24T13:48:19;18.00;99.90
7472;DHT22;3777;48.722;8.110;2023-04-24T13:50:46;17.90;99.90
7472;DHT22;3777;48.722;8.110;2023-04-24T13:53:16;17.40;99.90
7472;DHT22;3777;48.722;8.110;2023-04-24T13:55:43;16.90;99.90
7472;DHT22;3777;48.722;8.110;2023-04-24T13:58:10;16.50;99.90
7472;DHT22;3777;48.722;8.110;2023-04-24T14:00:37;16.30;99.90
7472;DHT22;3777;48.722;8.110;2023-04-24T14:03:04;16.00;99.90
7472;DHT22;3777;48.722;8.110;2023-04-24T14:05:31;15.80;99.90
7472;DHT22;3777;48.722;8.110;2023-04-24T14:07:58;15.60;99.90
7472;DHT22;3777;48.722;8.110;2023-04-24T14:10:26;15.40;99.90
7472;DHT22;3777;48.722;8.110;2023-04-24T14:12:53;15.20;99.90
7472;DHT22;3777;48.722;8.110;2023-04-24T14:15:20;15.10;99.90
7472;DHT22;3777;48.722;8.110;2023-04-24T14:17:48;15.00;99.90
7472;DHT22;3777;48.722;8.110;2023-04-24T14:20:15;14.70;99.90
7472;DHT22;3777;48.722;8.110;2023-04-24T14:22:42;14.70;99.90
7472;DHT22;3777;48.722;8.110;2023-04-24T14:25:09;14.70;99.90
7472;DHT22;3777;48.722;8.110;2023-04-24T14:27:37;14.70;99.90
7472;DHT22;3777;48.722;8.110;2023-04-24T14:30:06;14.40;99.90
7472;DHT22;3777;48.722;8.110;2023-04-24T14:32:34;14.50;99.90
7472;DHT22;3777;48.722;8.110;2023-04-24T14:35:01;14.50;99.90
7472;DHT22;3777;48.722;8.110;2023-04-24T14:37:28;14.50;99.90
7472;DHT22;3777;48.722;8.110;2023-04-24T14:39:55;14.60;99.90
7472;DHT22;3777;48.722;8.110;2023-04-24T14:42:22;14.70;99.90
7472;DHT22;3777;48.722;8.110;2023-04-24T14:44:51;14.80;99.90
7472;DHT22;3777;48.722;8.110;2023-04-24T14:47:18;14.80;99.90
7472;DHT22;3777;48.722;8.110;2023-04-24T14:49:47;14.90;99.90
7472;DHT22;3777;48.722;8.110;2023-04-24T14:52:14;15.00;99.90
7472;DHT22;3777;48.722;8.110;2023-04-24T14:54:41;15.10;99.90
7472;DHT22;3777;48.722;8.110;2023-04-24T14:57:08;15.20;99.90
7472;DHT22;3777;48.722;8.110;2023-04-24T14:59:35;15.20;99.90
7472;DHT22;3777;48.722;8.110;2023-04-24T15:02:04;15.30;99.90
7472;DHT22;3777;48.722;8.110;2023-04-24T15:04:31;15.40;99.90
7472;DHT22;3777;48.722;8.110;2023-04-24T15:06:58;15.30;99.90
7472;DHT22;3777;48.722;8.110;2023-04-24T15:09:25;15.30;99.90
7472;DHT22;3777;48.722;8.110;2023-04-24T15:11:53;15.20;99.90
7472;DHT22;3777;48.722;8.110;2023-04-24T15:14:20;15.20;99.90
7472;DHT22;3777;48.722;8.110;2023-04-24T15:16:47;15.10;99.90
7472;DHT22;3777;48.722;8.110;2023-04-24T15:19:16;15.20;99.90
7472;DHT22;3777;48.722;8.110;2023-04-24T15:21:43;15.30;99.90
7472;DHT22;3777;48.722;8.110;2023-04-24T15:24:11;15.30;99.90
7472;DHT22;3777;48.722;8.110;2023-04-24T15:26:38;15.50;99.90
7472;DHT22;3777;48.722;8.110;2023-04-24T15:29:05;15.60;99.90
7472;DHT22;3777;48.722;8.110;2023-04-24T15:31:32;15.60;99.90
7472;DHT22;3777;48.722;8.110;2023-04-24T15:33:59;15.60;99.90
7472;DHT22;3777;48.722;8.110;2023-04-24T15:36:27;15.60;99.90
7472;DHT22;3777;48.722;8.110;2023-04-24T15:38:54;15.30;99.90
7472;DHT22;3777;48.722;8.110;2023-04-24T15:41:21;15.20;99.90
7472;DHT22;3777;48.722;8.110;2023-04-24T15:43:48;15.10;99.90
7472;DHT22;3777;48.722;8.110;2023-04-24T15:46:15;15.10;99.90
7472;DHT22;3777;48.722;8.110;2023-04-24T15:48:42;14.90;99.90
7472;DHT22;3777;48.722;8.110;2023-04-24T15:51:10;14.90;99.90
7472;DHT22;3777;48.722;8.110;2023-04-24T15:53:38;14.80;99.90
7472;DHT22;3777;48.722;8.110;2023-04-24T15:56:06;14.70;99.90
7472;DHT22;3777;48.722;8.110;2023-04-24T15:58:33;14.70;99.90
7472;DHT22;3777;48.722;8.110;2023-04-24T16:01:00;14.70;99.90
7472;DHT22;3777;48.722;8.110;2023-04-24T16:03:27;14.70;99.90
7472;DHT22;3777;48.722;8.110;2023-04-24T16:05:54;14.70;99.90